Time;durP1;ratioP1;P1;durP2;ratioP2;P2;SDS_P1;SDS_P2;PMS_P1;PMS_P2;Temp;Humidity;BMP_temperature;BMP_pressure;BME280_temperature;BME280_humidity;BME280_pressure;Samples;Min_cycle;Max_cycle;Signal;HPM_P1;HPM_P2
2023/01/22 00:02:25;;;;;;;1.92;0.80;;;25.10;48.30;;;;;;4933336;29;20199;-59
2023/01/22 00:04:56;;;;;;;1.52;0.88;;;25.10;48.20;;;;;;4933643;29;20238;-59
2023/01/22 00:07:27;;;;;;;2.15;0.98;;;25.10;48.20;;;;;;4933744;29;20230;-60
2023/01/22 00:09:58;;;;;;;2.53;1.30;;;25.20;48.20;;;;;;4933009;29;20226;-60
2023/01/22 00:12:29;;;;;;;1.40;0.88;;;25.20;48.30;;;;;;4933420;29;20195;-60
2023/01/22 00:15:01;;;;;;;2.58;1.17;;;25.30;48.40;;;;;;4933912;29;20210;-60
2023/01/22 00:17:33;;;;;;;3.17;0.98;;;25.30;48.30;;;;;;4936182;29;20218;-60
2023/01/22 00:20:03;;;;;;;2.88;1.00;;;25.30;48.30;;;;;;4933394;29;20204;-60
2023/01/22 00:22:34;;;;;;;1.70;1.00;;;25.30;48.20;;;;;;4933722;29;20210;-60
2023/01/22 00:25:05;;;;;;;1.73;0.90;;;25.40;48.30;;;;;;4933524;29;20231;-60
2023/01/22 00:27:37;;;;;;;1.27;0.70;;;25.40;48.30;;;;;;4936938;29;20223;-60
2023/01/22 00:30:11;;;;;;;1.73;1.10;;;25.40;48.20;;;;;;4937365;29;20207;-59
2023/01/22 00:32:41;;;;;;;1.52;0.93;;;25.50;48.10;;;;;;4937208;29;20247;-60
2023/01/22 00:35:12;;;;;;;2.10;0.90;;;25.50;48.10;;;;;;4937166;29;20200;-59
2023/01/22 00:37:43;;;;;;;2.67;1.40;;;25.50;47.80;;;;;;4937310;29;20235;-60
2023/01/22 00:40:14;;;;;;;3.40;1.00;;;25.60;47.80;;;;;;4937359;29;20196;-58
2023/01/22 00:42:45;;;;;;;1.30;1.10;;;25.60;47.70;;;;;;4937298;29;20211;-60
2023/01/22 00:45:18;;;;;;;2.47;1.05;;;25.60;47.60;;;;;;4936942;29;20216;-60
2023/01/22 00:47:49;;;;;;;1.30;0.82;;;25.60;47.60;;;;;;4936840;29;20219;-59
2023/01/22 00:50:20;;;;;;;2.92;1.20;;;25.70;47.80;;;;;;4937048;29;20204;-60
2023/01/22 00:52:51;;;;;;;1.67;1.08;;;25.70;47.90;;;;;;4937102;29;20206;-61
2023/01/22 00:55:26;;;;;;;2.28;1.00;;;25.70;47.90;;;;;;4936525;29;20655;-60
2023/01/22 00:57:56;;;;;;;2.50;1.20;;;25.80;47.80;;;;;;4936214;29;20223;-60
2023/01/22 01:00:29;;;;;;;2.38;1.05;;;25.80;47.70;;;;;;4936686;29;20195;-60
2023/01/22 01:05:49;;;;;;;2.10;0.98;;;25.80;47.50;;;;;;4936543;29;20206;-60
2023/01/22 01:08:19;;;;;;;1.85;0.80;;;25.90;47.40;;;;;;4936368;29;20227;-60
2023/01/22 01:10:50;;;;;;;2.47;0.90;;;25.90;47.30;;;;;;4936971;29;20203;-60
2023/01/22 01:13:21;;;;;;;1.05;0.90;;;25.90;47.30;;;;;;4937191;29;20238;-60
2023/01/22 01:16:00;;;;;;;1.73;1.02;;;26.00;47.30;;;;;;4936272;29;20211;-60
2023/01/22 01:18:31;;;;;;;1.65;1.00;;;25.90;47.20;;;;;;4936455;29;20208;-60
2023/01/22 01:21:03;;;;;;;1.88;1.05;;;26.00;47.30;;;;;;4936480;29;20200;-60
2023/01/22 01:23:34;;;;;;;2.53;1.00;;;26.00;47.30;;;;;;4936391;29;20219;-59
2023/01/22 01:26:08;;;;;;;1.40;1.10;;;26.10;47.30;;;;;;4936191;29;20202;-60
2023/01/22 01:28:40;;;;;;;1.98;0.98;;;26.10;47.30;;;;;;4936549;29;20223;-60
2023/01/22 01:31:14;;;;;;;2.92;1.10;;;26.10;47.40;;;;;;4936382;29;20200;-60
2023/01/22 01:33:50;;;;;;;3.70;1.10;;;26.10;47.20;;;;;;4936029;29;20214;-60
2023/01/22 01:36:22;;;;;;;2.20;0.85;;;26.20;47.10;;;;;;4935138;29;20626;-60
2023/01/22 01:38:53;;;;;;;1.98;1.17;;;26.20;47.00;;;;;;4952832;29;20195;-60
2023/01/22 01:41:25;;;;;;;2.70;1.17;;;26.20;47.00;;;;;;4942291;28;20207;-60
2023/01/22 01:44:11;;;;;;;2.17;0.80;;;26.20;46.90;;;;;;4936055;29;20696;-60
2023/01/22 01:46:47;;;;;;;3.95;1.00;;;26.20;46.80;;;;;;4936281;29;20238;-60
2023/01/22 01:49:31;;;;;;;1.65;1.00;;;26.20;46.80;;;;;;4935785;29;20287;-60
2023/01/22 01:52:06;;;;;;;2.17;0.80;;;26.20;46.90;;;;;;4935747;29;20208;-60
2023/01/22 01:54:37;;;;;;;2.90;1.10;;;26.20;47.00;;;;;;4935593;29;20563;-60
2023/01/22 01:57:14;;;;;;;2.33;1.08;;;26.30;47.10;;;;;;4935383;29;20235;-59
2023/01/22 01:59:50;;;;;;;2.55;1.30;;;26.30;47.20;;;;;;4931557;29;20198;-59
2023/01/22 02:02:23;;;;;;;1.80;1.27;;;26.30;47.10;;;;;;4938580;28;20672;-59
2023/01/22 02:04:54;;;;;;;2.03;1.10;;;26.30;47.10;;;;;;4944517;29;20231;-60
2023/01/22 02:07:24;;;;;;;2.10;0.98;;;26.40;47.20;;;;;;4934495;29;20216;-59
2023/01/22 02:09:55;;;;;;;1.85;1.13;;;26.40;47.20;;;;;;4948186;29;20652;-61
2023/01/22 02:12:29;;;;;;;1.90;1.08;;;26.40;47.20;;;;;;4952691;28;20206;-60
2023/01/22 02:15:02;;;;;;;2.40;1.13;;;26.40;47.20;;;;;;4947935;29;20228;-60
2023/01/22 02:17:35;;;;;;;1.88;1.10;;;26.40;47.20;;;;;;4945902;28;20258;-60
2023/01/22 02:20:06;;;;;;;2.20;1.20;;;26.40;47.20;;;;;;4948728;29;20191;-60
2023/01/22 02:22:40;;;;;;;3.03;1.13;;;26.40;47.20;;;;;;4953844;28;20601;-60
2023/01/22 02:25:11;;;;;;;1.80;0.90;;;26.40;47.20;;;;;;4940222;28;20228;-60
2023/01/22 02:27:42;;;;;;;3.03;1.10;;;26.50;47.20;;;;;;4915765;29;20216;-60
2023/01/22 02:30:15;;;;;;;2.53;1.10;;;26.50;47.20;;;;;;4944942;29;20206;-59
2023/01/22 02:32:45;;;;;;;2.22;1.13;;;26.50;47.20;;;;;;4953663;28;20210;-59
2023/01/22 02:35:16;;;;;;;3.13;1.25;;;26.50;47.20;;;;;;4953312;28;20210;-60
2023/01/22 02:37:49;;;;;;;2.13;1.00;;;26.50;47.10;;;;;;4953576;28;20231;-60
2023/01/22 02:40:19;;;;;;;3.70;1.25;;;26.50;47.10;;;;;;4953261;28;20542;-60
2023/01/22 02:42:50;;;;;;;4.07;1.13;;;26.50;47.10;;;;;;4945416;28;20214;-60
2023/01/22 02:45:21;;;;;;;2.42;1.33;;;26.50;47.10;;;;;;4944800;29;20673;-59
2023/01/22 02:47:51;;;;;;;2.45;0.90;;;26.60;47.10;;;;;;4952656;28;20214;-60
2023/01/22 02:50:22;;;;;;;2.30;1.00;;;26.60;47.10;;;;;;4952310;28;20406;-60
2023/01/22 02:52:55;;;;;;;3.10;1.17;;;26.60;47.20;;;;;;4953544;28;20207;-60
2023/01/22 02:55:25;;;;;;;2.15;1.00;;;26.60;47.10;;;;;;4950135;28;20195;-60
2023/01/22 02:57:56;;;;;;;3.10;1.35;;;26.60;47.20;;;;;;4952139;28;20231;-60
2023/01/22 03:00:27;;;;;;;1.90;1.13;;;26.70;47.20;;;;;;4953587;28;20198;-59
2023/01/22 03:02:57;;;;;;;2.45;1.00;;;26.70;47.20;;;;;;4952571;28;20209;-60
2023/01/22 03:05:29;;;;;;;1.80;1.10;;;26.70;47.30;;;;;;4952488;28;20223;-60
2023/01/22 03:08:02;;;;;;;3.03;1.10;;;26.70;47.20;;;;;;4952987;28;20593;-60
2023/01/22 03:10:33;;;;;;;1.90;0.90;;;26.70;47.20;;;;;;4952037;28;20199;-58
2023/01/22 03:21:23;;;;;;;4.00;1.60;;;26.80;47.20;;;;;;4953117;29;20237;-58
2023/01/22 03:23:56;;;;;;;3.63;1.33;;;26.80;47.20;;;;;;4952064;28;20206;-58
2023/01/22 03:26:30;;;;;;;1.85;1.08;;;26.80;47.20;;;;;;4952714;28;20222;-57
2023/01/22 03:29:01;;;;;;;3.70;0.95;;;26.80;47.20;;;;;;4952545;28;20292;-58
2023/01/22 03:31:31;;;;;;;2.28;1.13;;;26.90;47.20;;;;;;4952005;28;20734;-57
2023/01/22 03:34:02;;;;;;;2.60;1.00;;;26.90;47.30;;;;;;4944669;28;20203;-57
2023/01/22 03:36:33;;;;;;;3.15;1.30;;;26.90;47.30;;;;;;4952538;28;20227;-58
2023/01/22 03:39:05;;;;;;;4.00;1.27;;;26.90;47.40;;;;;;4951651;28;20398;-58
2023/01/22 03:41:36;;;;;;;4.45;1.77;;;26.90;47.40;;;;;;4951156;28;20199;-58
2023/01/22 03:44:08;;;;;;;2.10;1.10;;;26.90;47.40;;;;;;4937532;28;20226;-56
2023/01/22 03:46:39;;;;;;;3.33;1.45;;;26.90;47.50;;;;;;4951825;28;20218;-58
2023/01/22 03:49:10;;;;;;;5.22;1.38;;;26.90;47.50;;;;;;4934730;28;20713;-56
2023/01/22 03:51:41;;;;;;;3.40;1.30;;;26.90;47.50;;;;;;4951981;28;20199;-57
2023/01/22 03:54:15;;;;;;;2.65;1.45;;;27.00;47.60;;;;;;4945829;28;20210;-58
2023/01/22 03:56:46;;;;;;;4.88;1.15;;;27.00;47.60;;;;;;4951723;28;20768;-57
2023/01/22 03:59:17;;;;;;;3.45;1.30;;;27.00;47.60;;;;;;4867738;28;20203;-58
2023/01/22 04:01:47;;;;;;;6.22;1.58;;;27.00;47.70;;;;;;4951786;28;20656;-58
2023/01/22 04:04:18;;;;;;;4.18;1.40;;;27.00;47.60;;;;;;4951161;28;20231;-58
2023/01/22 04:06:49;;;;;;;4.20;1.23;;;27.10;47.70;;;;;;4951642;28;20215;-55
2023/01/22 04:09:21;;;;;;;3.28;1.50;;;27.10;47.70;;;;;;4951287;28;20567;-57
2023/01/22 04:11:52;;;;;;;3.28;1.33;;;27.10;47.70;;;;;;4951660;28;20215;-61
2023/01/22 04:14:23;;;;;;;4.85;1.35;;;27.10;47.70;;;;;;4935936;28;20537;-58
2023/01/22 04:16:53;;;;;;;2.92;1.17;;;27.20;48.10;;;;;;4941294;28;20227;-58
2023/01/22 04:19:24;;;;;;;3.97;1.42;;;27.20;48.30;;;;;;4933359;29;20200;-58
2023/01/22 04:21:54;;;;;;;8.20;2.08;;;27.20;48.30;;;;;;4952006;28;20210;-58
2023/01/22 04:24:27;;;;;;;3.80;1.63;;;27.20;48.40;;;;;;4951916;28;20591;-58
2023/01/22 04:26:58;;;;;;;5.00;1.50;;;27.20;48.40;;;;;;4951737;28;20227;-58
2023/01/22 04:29:29;;;;;;;5.15;1.80;;;27.30;48.30;;;;;;4952326;28;20571;-59
2023/01/22 04:31:59;;;;;;;5.53;1.67;;;27.30;48.30;;;;;;4951438;28;20230;-59
2023/01/22 04:34:30;;;;;;;5.43;1.55;;;27.30;48.30;;;;;;4951553;28;20206;-59
2023/01/22 04:37:01;;;;;;;3.05;1.60;;;27.40;48.30;;;;;;4951473;28;20219;-59
2023/01/22 04:39:33;;;;;;;5.68;1.40;;;27.40;48.20;;;;;;4951570;28;20203;-59
2023/01/22 04:42:04;;;;;;;5.18;1.85;;;27.40;48.20;;;;;;4951721;28;20199;-59
2023/01/22 04:44:34;;;;;;;5.70;1.80;;;27.40;48.10;;;;;;4945668;28;20227;-59
2023/01/22 04:47:10;;;;;;;2.97;1.40;;;27.50;48.20;;;;;;4950765;28;20223;-59
2023/01/22 04:49:41;;;;;;;5.43;1.58;;;27.50;48.00;;;;;;4950540;28;20198;-58
2023/01/22 04:52:11;;;;;;;6.45;1.70;;;27.50;48.60;;;;;;4951864;29;20547;-58
2023/01/22 04:54:44;;;;;;;2.92;1.30;;;27.50;47.90;;;;;;4941379;28;20203;-59
2023/01/22 04:57:15;;;;;;;4.35;1.58;;;27.60;47.90;;;;;;4952303;28;20266;-59
2023/01/22 04:59:46;;;;;;;5.78;1.50;;;27.60;47.90;;;;;;4951394;28;20205;-58
2023/01/22 05:02:17;;;;;;;2.85;1.13;;;27.60;47.80;;;;;;4950947;28;20203;-59
2023/01/22 05:04:47;;;;;;;2.42;1.35;;;27.60;47.90;;;;;;4951169;28;20218;-59
2023/01/22 05:07:18;;;;;;;3.58;1.33;;;27.60;47.80;;;;;;4951717;28;20306;-59
2023/01/22 05:09:51;;;;;;;3.25;1.23;;;27.60;47.80;;;;;;4950970;28;20214;-59
2023/01/22 05:12:21;;;;;;;3.10;1.27;;;27.60;47.70;;;;;;4940901;28;20211;-58
2023/01/22 05:14:53;;;;;;;2.95;1.10;;;27.60;47.70;;;;;;4939775;29;20221;-59
2023/01/22 05:17:24;;;;;;;3.60;1.38;;;27.60;47.60;;;;;;4941641;28;20219;-59
2023/01/22 05:19:55;;;;;;;5.30;1.30;;;27.60;47.60;;;;;;4939371;29;20187;-59
2023/01/22 05:22:26;;;;;;;3.22;1.45;;;27.60;47.60;;;;;;4954414;28;20745;-59
2023/01/22 05:24:58;;;;;;;5.15;1.67;;;27.70;47.60;;;;;;4954680;28;20712;-59
2023/01/22 05:27:29;;;;;;;5.65;1.63;;;27.70;47.70;;;;;;4954261;28;20226;-58
2023/01/22 05:30:00;;;;;;;3.88;1.75;;;27.70;47.50;;;;;;4954950;28;20199;-59
2023/01/22 05:32:30;;;;;;;3.55;1.33;;;27.70;47.40;;;;;;4948337;28;20200;-59
2023/01/22 05:35:01;;;;;;;5.25;1.42;;;27.70;47.40;;;;;;4937959;29;20191;-59
2023/01/22 05:37:34;;;;;;;5.20;1.40;;;27.70;47.40;;;;;;4954989;28;20606;-58
2023/01/22 05:40:07;;;;;;;2.40;1.45;;;27.70;47.30;;;;;;4955236;28;20195;-59
2023/01/22 05:42:38;;;;;;;3.72;1.42;;;27.60;47.20;;;;;;4950984;28;20199;-59
2023/01/22 05:45:09;;;;;;;3.70;1.42;;;27.70;47.30;;;;;;4939010;29;20585;-59
2023/01/22 05:47:40;;;;;;;2.88;1.42;;;27.60;47.10;;;;;;4954996;28;20219;-59
2023/01/22 05:50:14;;;;;;;4.75;1.48;;;27.70;47.30;;;;;;4951971;28;20199;-59
2023/01/22 05:52:45;;;;;;;4.65;1.50;;;27.60;47.20;;;;;;4935221;29;20207;-58
2023/01/22 05:55:17;;;;;;;2.75;1.30;;;27.60;47.30;;;;;;4938793;29;20191;-59
2023/01/22 05:57:49;;;;;;;6.00;1.60;;;27.60;47.40;;;;;;4954149;28;20231;-59
2023/01/22 06:00:20;;;;;;;4.53;1.35;;;27.60;47.30;;;;;;4952188;28;20218;-58
2023/01/22 06:02:55;;;;;;;4.07;1.42;;;27.70;47.30;;;;;;4954253;28;20229;-59
2023/01/22 06:05:26;;;;;;;3.28;1.30;;;27.70;47.40;;;;;;4954230;28;20589;-59
2023/01/22 06:07:58;;;;;;;2.88;1.38;;;27.70;47.30;;;;;;4954226;28;20219;-58
2023/01/22 06:10:31;;;;;;;4.05;1.50;;;27.70;47.40;;;;;;4954976;28;20222;-58
2023/01/22 06:13:02;;;;;;;4.05;1.38;;;27.70;47.30;;;;;;4949864;28;20192;-57
2023/01/22 06:15:32;;;;;;;3.25;1.52;;;27.70;47.30;;;;;;4940812;29;20195;-58
2023/01/22 06:18:03;;;;;;;3.53;1.23;;;27.70;47.10;;;;;;4953528;28;20227;-58
2023/01/22 06:20:35;;;;;;;4.00;1.30;;;27.70;47.00;;;;;;4954112;28;20274;-57
2023/01/22 06:23:06;;;;;;;4.93;1.60;;;27.70;47.00;;;;;;4953904;28;20202;-58
2023/01/22 06:25:39;;;;;;;3.63;1.48;;;27.70;47.00;;;;;;4954142;28;20219;-58
2023/01/22 06:28:09;;;;;;;5.22;1.60;;;27.70;46.90;;;;;;4953476;28;20225;-58
2023/01/22 06:30:40;;;;;;;5.60;1.13;;;27.70;46.90;;;;;;4954073;28;20571;-58
2023/01/22 06:33:11;;;;;;;4.18;1.40;;;27.70;46.90;;;;;;4953644;28;20199;-58
2023/01/22 06:35:42;;;;;;;3.13;1.30;;;27.70;46.90;;;;;;4953802;28;20214;-58
2023/01/22 06:38:13;;;;;;;3.08;1.10;;;27.70;46.90;;;;;;4952814;28;20222;-58
2023/01/22 06:40:51;;;;;;;3.25;1.23;;;27.70;46.90;;;;;;4953844;28;20206;-58
2023/01/22 06:43:22;;;;;;;3.60;1.33;;;27.70;46.90;;;;;;4944757;28;20200;-58
2023/01/22 06:45:53;;;;;;;3.20;1.30;;;27.70;46.90;;;;;;4934703;29;20227;-58
2023/01/22 06:48:24;;;;;;;3.17;1.25;;;27.70;46.90;;;;;;4934702;29;20223;-58
2023/01/22 06:50:58;;;;;;;2.42;1.20;;;27.70;47.50;;;;;;4934643;29;20576;-58
2023/01/22 06:53:29;;;;;;;3.00;1.50;;;27.70;46.90;;;;;;4934803;29;20206;-58
2023/01/22 06:56:04;;;;;;;3.03;1.15;;;27.70;46.80;;;;;;4934376;29;20235;-58
2023/01/22 06:58:34;;;;;;;2.13;1.10;;;27.70;46.70;;;;;;4934099;29;20212;-58
2023/01/22 07:01:06;;;;;;;1.63;1.05;;;27.70;46.60;;;;;;4934488;29;20695;-58
2023/01/22 07:03:37;;;;;;;3.83;1.40;;;27.70;46.60;;;;;;4934432;29;20258;-58
2023/01/22 07:06:08;;;;;;;2.60;1.23;;;27.70;46.50;;;;;;4934538;29;20572;-58
2023/01/22 07:08:39;;;;;;;3.58;1.52;;;27.70;46.40;;;;;;4934581;29;20210;-58
2023/01/22 07:11:13;;;;;;;2.95;1.25;;;27.60;46.40;;;;;;4932189;29;20323;-58
2023/01/22 07:13:44;;;;;;;2.63;1.38;;;27.60;46.40;;;;;;4934311;29;20203;-58
2023/01/22 07:16:17;;;;;;;3.15;1.25;;;27.60;46.40;;;;;;4934446;29;20204;-58
2023/01/22 07:18:47;;;;;;;2.75;1.45;;;27.60;46.40;;;;;;4933834;29;20199;-58
2023/01/22 07:21:18;;;;;;;3.20;1.50;;;27.60;46.40;;;;;;4933837;29;20289;-58
2023/01/22 07:23:49;;;;;;;3.08;1.30;;;27.60;46.40;;;;;;4933597;29;20210;-58
2023/01/22 07:26:21;;;;;;;1.83;1.10;;;27.60;46.40;;;;;;4933782;29;20226;-58
2023/01/22 07:28:52;;;;;;;2.83;1.20;;;27.60;46.40;;;;;;4936124;29;20191;-58
2023/01/22 07:31:23;;;;;;;2.67;1.17;;;27.60;46.40;;;;;;4934009;29;20227;-59
2023/01/22 07:33:54;;;;;;;3.30;1.17;;;27.50;46.40;;;;;;4933964;29;20210;-58
2023/01/22 07:36:25;;;;;;;2.05;1.00;;;27.50;46.40;;;;;;4933637;29;20207;-58
2023/01/22 07:38:56;;;;;;;3.65;1.35;;;27.50;46.50;;;;;;4933728;29;20781;-58
2023/01/22 07:41:28;;;;;;;3.78;1.23;;;27.40;46.00;;;;;;4933924;29;20203;-56
2023/01/22 07:43:59;;;;;;;3.50;1.20;;;27.40;45.70;;;;;;4928232;29;20203;-58
2023/01/22 07:46:30;;;;;;;4.07;1.25;;;27.40;45.60;;;;;;4932952;29;20227;-56
2023/01/22 07:49:01;;;;;;;5.40;1.30;;;27.30;45.40;;;;;;4941808;29;20204;-58
2023/01/22 07:51:32;;;;;;;4.63;1.25;;;27.30;45.40;;;;;;4932308;29;20202;-58
2023/01/22 07:54:02;;;;;;;3.53;1.33;;;27.20;45.40;;;;;;4951384;29;20203;-58
2023/01/22 07:56:36;;;;;;;4.25;1.27;;;27.20;45.60;;;;;;4952101;28;20223;-58
2023/01/22 07:59:06;;;;;;;3.30;1.33;;;27.10;45.60;;;;;;4951637;28;20195;-57
2023/01/22 08:01:37;;;;;;;1.92;1.00;;;27.10;45.60;;;;;;4939219;28;20227;-58
2023/01/22 08:04:08;;;;;;;2.72;1.13;;;27.10;45.70;;;;;;4950875;29;20721;-58
2023/01/22 08:06:39;;;;;;;3.22;1.30;;;27.00;45.70;;;;;;4951430;28;20234;-58
2023/01/22 08:09:09;;;;;;;2.83;1.30;;;27.00;45.80;;;;;;4951440;28;20187;-58
2023/01/22 08:11:42;;;;;;;2.40;1.10;;;27.00;45.80;;;;;;4942647;28;20195;-58
2023/01/22 08:14:14;;;;;;;3.00;1.30;;;27.00;45.80;;;;;;4935896;29;20312;-59
2023/01/22 08:16:45;;;;;;;3.15;1.20;;;27.00;45.80;;;;;;4933778;29;20298;-58
2023/01/22 08:19:15;;;;;;;2.95;1.00;;;27.00;45.80;;;;;;4951499;29;20214;-58
2023/01/22 08:21:46;;;;;;;2.33;1.00;;;27.00;45.90;;;;;;4951392;28;20202;-58
2023/01/22 08:24:17;;;;;;;2.22;1.00;;;26.90;45.90;;;;;;4952154;28;20203;-58
2023/01/22 08:26:49;;;;;;;2.75;1.27;;;26.90;45.90;;;;;;4951324;28;20230;-58
2023/01/22 08:29:20;;;;;;;3.55;1.15;;;26.90;46.00;;;;;;4951429;28;20195;-58
2023/01/22 08:31:54;;;;;;;1.95;1.00;;;26.90;46.00;;;;;;4951042;28;20202;-58
2023/01/22 08:34:25;;;;;;;2.67;1.02;;;26.80;46.00;;;;;;4950534;29;20683;-58
2023/01/22 08:36:56;;;;;;;2.08;1.05;;;26.80;46.00;;;;;;4948436;28;20223;-58
2023/01/22 08:39:27;;;;;;;1.80;0.93;;;26.80;46.00;;;;;;4951460;29;20562;-58
2023/01/22 08:42:00;;;;;;;2.38;1.10;;;26.80;46.10;;;;;;4950604;28;20198;-58
2023/01/22 08:44:31;;;;;;;1.50;0.93;;;26.80;46.10;;;;;;4932042;29;20306;-58
2023/01/22 08:47:02;;;;;;;2.15;0.80;;;26.70;46.00;;;;;;4932852;29;20239;-58
2023/01/22 08:49:34;;;;;;;3.35;1.00;;;26.70;46.00;;;;;;4917266;29;20196;-58
2023/01/22 08:52:05;;;;;;;2.35;0.77;;;26.70;46.00;;;;;;4915503;29;20240;-58
2023/01/22 08:54:35;;;;;;;2.38;1.10;;;26.70;46.00;;;;;;4916568;29;20200;-58
2023/01/22 08:57:08;;;;;;;2.05;0.80;;;26.70;46.00;;;;;;4917343;29;20228;-58
2023/01/22 08:59:39;;;;;;;1.85;0.80;;;26.60;45.90;;;;;;4916876;29;20656;-58
2023/01/22 09:02:16;;;;;;;1.90;0.80;;;26.60;45.90;;;;;;4917469;29;20207;-58
2023/01/22 09:04:46;;;;;;;2.42;0.90;;;26.60;45.90;;;;;;4917514;29;20676;-58
2023/01/22 09:07:17;;;;;;;2.53;1.00;;;26.50;45.90;;;;;;4918024;29;20232;-57
2023/01/22 09:09:48;;;;;;;1.80;0.85;;;26.50;46.00;;;;;;4948365;28;20199;-57
2023/01/22 09:12:20;;;;;;;2.15;1.00;;;26.50;46.00;;;;;;4936143;29;20208;-58
2023/01/22 09:14:51;;;;;;;1.50;0.90;;;26.50;46.10;;;;;;4955149;28;20183;-57
2023/01/22 09:17:23;;;;;;;1.92;1.00;;;26.50;46.10;;;;;;4953958;28;20226;-57
2023/01/22 09:19:53;;;;;;;1.95;0.88;;;26.50;46.10;;;;;;4954864;28;20230;-56
2023/01/22 09:22:24;;;;;;;2.42;1.15;;;26.50;46.10;;;;;;4954614;28;20203;-57
2023/01/22 09:24:55;;;;;;;1.38;0.80;;;26.40;46.10;;;;;;4955653;28;20670;-58
2023/01/22 09:27:28;;;;;;;2.70;0.80;;;26.40;46.10;;;;;;4954193;28;20227;-57
2023/01/22 09:29:58;;;;;;;2.30;0.88;;;26.40;46.10;;;;;;4954479;28;20206;-57
2023/01/22 09:32:29;;;;;;;2.17;0.82;;;26.40;46.00;;;;;;4944076;28;20200;-55
2023/01/22 09:35:00;;;;;;;2.85;1.23;;;26.40;46.00;;;;;;4953920;28;20660;-56
2023/01/22 09:37:30;;;;;;;1.65;0.80;;;26.30;46.00;;;;;;4947055;28;20207;-57
2023/01/22 09:40:01;;;;;;;2.50;1.05;;;26.30;46.00;;;;;;4954073;28;20206;-57
2023/01/22 09:42:39;;;;;;;1.40;0.80;;;26.30;46.00;;;;;;4951648;28;20207;-57
2023/01/22 09:45:13;;;;;;;1.67;0.80;;;26.30;46.10;;;;;;4954103;28;20195;-57
2023/01/22 09:47:47;;;;;;;1.45;0.80;;;26.20;46.10;;;;;;4953646;28;20690;-57
2023/01/22 09:50:21;;;;;;;1.83;0.90;;;26.20;46.10;;;;;;4954040;28;20714;-58
2023/01/22 09:52:53;;;;;;;1.80;0.70;;;26.20;46.20;;;;;;4954223;28;20742;-56
2023/01/22 09:55:25;;;;;;;1.42;0.80;;;26.20;46.30;;;;;;4954346;28;20199;-55
2023/01/22 09:58:01;;;;;;;1.58;0.82;;;26.20;46.40;;;;;;4953512;28;20733;-57
2023/01/22 10:00:40;;;;;;;1.77;1.00;;;26.20;46.40;;;;;;4945408;28;20618;-56
2023/01/22 10:03:17;;;;;;;1.80;1.08;;;26.20;46.40;;;;;;4935872;29;20194;-57
2023/01/22 10:05:52;;;;;;;2.00;0.90;;;26.20;46.30;;;;;;4915244;29;20208;-58
2023/01/22 10:08:25;;;;;;;1.23;0.70;;;26.10;46.20;;;;;;4918969;29;20226;-57
2023/01/22 10:10:55;;;;;;;1.13;0.70;;;26.10;46.10;;;;;;4934962;29;20291;-56
2023/01/22 10:13:31;;;;;;;1.95;0.90;;;26.10;46.10;;;;;;4934701;29;20630;-57
2023/01/22 10:16:02;;;;;;;1.65;0.95;;;26.10;46.20;;;;;;4935302;29;20203;-56
2023/01/22 10:18:38;;;;;;;1.73;0.77;;;26.00;46.10;;;;;;4934913;29;20212;-56
2023/01/22 10:21:17;;;;;;;1.52;0.77;;;26.00;46.10;;;;;;4934218;29;20222;-56
2023/01/22 10:23:49;;;;;;;2.85;1.00;;;26.00;46.20;;;;;;4934141;29;20565;-57
2023/01/22 10:26:23;;;;;;;2.53;0.90;;;26.00;46.30;;;;;;4934250;29;20222;-56
2023/01/22 10:28:59;;;;;;;1.45;0.80;;;25.90;46.30;;;;;;4934268;29;20203;-55
2023/01/22 10:31:32;;;;;;;1.08;0.70;;;25.90;46.30;;;;;;4934160;29;20202;-55
2023/01/22 10:34:04;;;;;;;1.67;0.63;;;25.90;46.30;;;;;;4934411;29;20211;-57
2023/01/22 10:36:35;;;;;;;1.05;0.70;;;25.90;46.40;;;;;;4934361;29;20708;-55
2023/01/22 10:39:08;;;;;;;0.80;0.70;;;25.90;46.40;;;;;;4934707;29;20226;-56
2023/01/22 10:41:42;;;;;;;2.30;0.73;;;25.90;46.40;;;;;;4933854;29;20211;-56
2023/01/22 10:44:26;;;;;;;1.73;1.00;;;25.80;46.40;;;;;;4934042;29;20211;-55
2023/01/22 10:47:08;;;;;;;1.83;0.77;;;25.80;46.20;;;;;;4934264;29;20609;-57
2023/01/22 10:49:39;;;;;;;2.47;0.77;;;25.80;46.30;;;;;;4934261;29;20210;-57
2023/01/22 10:52:23;;;;;;;1.02;0.60;;;25.80;46.30;;;;;;4933426;29;20203;-57
2023/01/22 10:54:58;;;;;;;1.48;0.80;;;25.80;46.30;;;;;;4934077;29;20693;-56
2023/01/22 10:57:32;;;;;;;1.30;0.60;;;25.70;46.30;;;;;;4934303;29;20223;-57
2023/01/22 11:00:18;;;;;;;1.65;0.85;;;25.70;46.30;;;;;;4933991;29;20687;-59
2023/01/22 11:02:51;;;;;;;1.25;0.77;;;25.70;46.30;;;;;;4933605;29;20773;-56
2023/01/22 11:05:24;;;;;;;2.17;0.80;;;25.70;46.40;;;;;;4917569;29;20195;-57
2023/01/22 11:07:59;;;;;;;1.08;0.65;;;25.70;46.40;;;;;;4932660;29;20235;-56
2023/01/22 11:10:33;;;;;;;1.88;0.95;;;25.60;47.00;;;;;;4931671;29;20195;-54
2023/01/22 11:13:21;;;;;;;1.05;0.57;;;25.60;46.40;;;;;;4932617;29;20203;-55
2023/01/22 11:15:59;;;;;;;1.90;0.90;;;25.60;46.40;;;;;;4931752;29;20294;-57
2023/01/22 11:18:34;;;;;;;1.23;0.80;;;25.60;46.50;;;;;;4932454;29;20620;-57
2023/01/22 11:21:14;;;;;;;1.40;0.95;;;25.60;46.40;;;;;;4932161;29;20648;-55
2023/01/22 11:23:51;;;;;;;1.38;0.70;;;25.60;46.50;;;;;;4933694;29;20207;-55
2023/01/22 11:26:32;;;;;;;1.40;0.70;;;25.50;46.40;;;;;;4933473;29;20207;-56
2023/01/22 11:29:09;;;;;;;1.50;0.80;;;25.50;46.40;;;;;;4934240;29;20206;-56
2023/01/22 11:31:56;;;;;;;1.60;0.82;;;25.50;46.50;;;;;;4934225;29;20671;-55
2023/01/22 11:34:44;;;;;;;1.52;0.80;;;25.50;46.50;;;;;;4934073;29;20203;-54
2023/01/22 11:37:17;;;;;;;1.13;0.70;;;25.50;46.50;;;;;;4935534;29;20217;-58
2023/01/22 11:40:14;;;;;;;1.05;0.65;;;25.40;46.50;;;;;;4914947;29;20568;-56
2023/01/22 11:43:00;;;;;;;1.77;0.85;;;25.40;46.50;;;;;;4919503;29;20630;-54
2023/01/22 11:45:46;;;;;;;0.93;0.70;;;25.40;46.60;;;;;;4933970;29;20233;-56
2023/01/22 11:48:31;;;;;;;0.93;0.50;;;25.40;46.60;;;;;;4933879;29;20246;-58
2023/01/22 11:51:14;;;;;;;3.75;0.90;;;25.40;46.60;;;;;;4933447;29;20209;-56
2023/01/22 11:53:58;;;;;;;1.63;0.82;;;25.30;46.50;;;;;;4933403;29;20239;-54
2023/01/22 11:56:41;;;;;;;0.93;0.70;;;25.30;46.50;;;;;;4932952;29;20223;-56
2023/01/22 11:59:20;;;;;;;1.00;0.73;;;25.30;46.50;;;;;;4933253;29;20679;-57
2023/01/22 12:02:14;;;;;;;1.58;0.70;;;25.30;46.60;;;;;;4933774;29;20210;-56
2023/01/22 12:05:15;;;;;;;1.98;0.85;;;25.30;46.60;;;;;;4935306;29;20190;-57
2023/01/22 12:07:58;;;;;;;0.82;0.60;;;25.20;46.50;;;;;;4914362;29;20231;-55
2023/01/22 12:11:02;;;;;;;1.08;0.88;;;25.20;46.60;;;;;;4914597;29;20199;-57
2023/01/22 12:13:54;;;;;;;0.98;0.80;;;25.20;46.60;;;;;;4925094;29;20207;-56
2023/01/22 12:16:37;;;;;;;1.08;0.60;;;25.20;46.60;;;;;;4932120;29;20199;-56
2023/01/22 12:19:45;;;;;;;1.65;0.60;;;25.10;46.70;;;;;;4933439;29;20203;-56
2023/01/22 12:22:27;;;;;;;0.93;0.60;;;25.10;46.70;;;;;;4935967;29;20207;-56
2023/01/22 12:25:03;;;;;;;1.10;0.60;;;25.10;46.70;;;;;;4937218;29;20595;-55
2023/01/22 12:27:40;;;;;;;1.48;0.70;;;25.10;46.70;;;;;;4937084;29;20234;-56
2023/01/22 12:30:20;;;;;;;1.23;0.75;;;25.10;46.70;;;;;;4937042;29;20194;-57
2023/01/22 12:32:56;;;;;;;0.65;0.60;;;25.10;46.70;;;;;;4937417;29;20202;-51
2023/01/22 12:35:27;;;;;;;0.95;0.68;;;25.00;46.70;;;;;;4937125;29;20571;-56
2023/01/22 12:38:09;;;;;;;1.17;0.70;;;25.00;46.90;;;;;;4937047;29;20699;-55
2023/01/22 12:41:05;;;;;;;1.90;0.63;;;25.00;46.70;;;;;;4937101;29;20210;-57
2023/01/22 12:43:42;;;;;;;1.00;0.70;;;25.00;46.70;;;;;;4936697;29;20207;-58
2023/01/22 12:46:21;;;;;;;1.65;0.70;;;25.00;46.70;;;;;;4936628;29;20206;-57
2023/01/22 12:49:01;;;;;;;1.10;0.60;;;24.90;46.70;;;;;;4936507;29;20278;-58
2023/01/22 12:51:40;;;;;;;1.63;0.70;;;24.90;46.80;;;;;;4936675;29;20203;-57
2023/01/22 12:54:28;;;;;;;1.25;0.70;;;24.90;46.80;;;;;;4936850;29;20199;-56
2023/01/22 12:57:12;;;;;;;0.65;0.57;;;24.90;46.80;;;;;;4936342;29;20243;-57
2023/01/22 12:59:48;;;;;;;1.55;0.70;;;24.90;46.90;;;;;;4936774;29;20206;-57
2023/01/22 13:02:38;;;;;;;1.02;0.60;;;24.90;46.90;;;;;;4936399;29;20203;-56
2023/01/22 13:05:18;;;;;;;1.33;0.50;;;24.80;46.90;;;;;;4935800;29;20278;-57
2023/01/22 13:07:51;;;;;;;1.48;0.80;;;24.80;46.90;;;;;;4936209;29;20290;-58
2023/01/22 13:10:33;;;;;;;1.05;0.65;;;24.80;46.90;;;;;;4936655;29;20203;-57
2023/01/22 13:13:06;;;;;;;1.00;0.60;;;24.80;46.90;;;;;;4936368;29;20211;-57
2023/01/22 13:15:40;;;;;;;0.80;0.70;;;24.80;46.90;;;;;;4936822;29;20211;-58
2023/01/22 13:18:21;;;;;;;0.68;0.50;;;24.70;46.90;;;;;;4936157;29;20243;-58
2023/01/22 13:21:01;;;;;;;1.15;0.60;;;24.70;46.90;;;;;;4936131;29;20196;-59
2023/01/22 13:23:34;;;;;;;1.15;0.52;;;24.70;46.90;;;;;;4936351;29;20199;-57
2023/01/22 13:26:07;;;;;;;0.90;0.60;;;24.70;46.90;;;;;;4936566;29;20196;-57
2023/01/22 13:28:40;;;;;;;0.77;0.55;;;24.70;47.00;;;;;;4938785;29;20224;-58
2023/01/22 13:31:19;;;;;;;0.98;0.60;;;24.70;47.00;;;;;;4936050;29;20664;-56
2023/01/22 13:34:00;;;;;;;1.20;0.70;;;24.60;47.00;;;;;;4935040;29;20200;-57